Weather History for Cadillac, MI

Change the Weather History Date:

Friday, July 12, 2013

  Actual Average Record
Temperature  
Mean Temperature 63 °F -  
Max Temperature 81 °F 79 °F 92 °F (1952)
Min Temperature 45 °F 54 °F 39 °F (1971)
Degree Days  
Heating Degree Days 2    
Growing Degree Days 13 (Base 50)    
Moisture  
Dew Point 47 °F    
Average Humidity 58    
Maximum Humidity 92    
Minimum Humidity 19    
Precipitation  
Precipitation 0.00 in - - ()
Sea Level Pressure  
Sea Level Pressure 30.14 in    
Wind  
Wind Speed 2 mph (SSE)    
Max Wind Speed 8 mph    
Max Gust Speed -    
Visibility 10 miles    
Events      
Averages and records for this station are not official NWS values.
T = Trace of Precipitation, MM = Missing Value Source: NWS Daily Summary

Daily Weather History Graph

Daily Weather History Graph

Search for Another Location

Airport:

Trip Planner

Search our weather history database for the weather conditions in past years. The results will help you decide how hot, cold, wet, or windy it might be!

Date:

Astronomy

Jul. 12, 2013 Rise Set
Actual Time 6:09 AM EDT 9:24 PM EDT
Civil Twilight 5:33 AM EDT 10:00 PM EDT
Nautical Twilight 4:47 AM EDT 10:46 PM EDT
Astronomical Twilight 3:51 AM EDT 11:42 PM EDT
Moon 10:37 AM EDT (7/12) 11:22 PM EDT (7/12)
Length of Visible Light 16h 26m
Length of Day
15h 15m
Waxing Crescent, 17% of the Moon is Illuminated
Jul 12
Waxing Crescent
Jul 15
First Quarter
Jul 22
Full
Jul 29
Last Quarter
Aug 6
New

Hourly Weather History & Observations

Time (EDT) Temp. Windchill Dew Point Humidity Pressure Visibility Wind Dir Wind Speed Gust Speed Precip Events Conditions
12:15 AM 56.5 °F - 52.5 °F 87% 30.10 in 10.0 mi Calm Calm - N/A   Clear
12:35 AM 54.1 °F - 50.4 °F 87% 30.10 in 10.0 mi Calm Calm - N/A   Clear
12:55 AM 54.0 °F - 50.5 °F 88% 30.11 in 10.0 mi Calm Calm - N/A   Clear
1:15 AM 54.0 °F - 50.9 °F 89% 30.10 in 10.0 mi Calm Calm - N/A   Clear
1:35 AM 54.0 °F - 50.7 °F 89% 30.11 in 10.0 mi Calm Calm - N/A   Clear
1:55 AM 51.4 °F - 48.6 °F 90% 30.12 in 10.0 mi Calm Calm - N/A   Clear
2:14 AM 51.4 °F - 48.6 °F 90% 30.12 in 10.0 mi Calm Calm - N/A   Clear
2:35 AM 51.4 °F - 48.6 °F 90% 30.12 in 10.0 mi Calm Calm - N/A   Clear
2:55 AM 51.4 °F - 48.9 °F 91% 30.12 in 10.0 mi Calm Calm - N/A   Clear
3:14 AM 51.4 °F - 49.1 °F 92% 30.12 in 10.0 mi Calm Calm - N/A   Clear
3:35 AM 50.4 °F - 47.8 °F 91% 30.13 in 10.0 mi Calm Calm - N/A   Clear
3:55 AM 51.4 °F - 49.1 °F 92% 30.13 in 10.0 mi Calm Calm - N/A   Clear
4:14 AM 51.4 °F - 49.1 °F 92% 30.14 in 10.0 mi Calm Calm - N/A   Clear
4:35 AM 50.7 °F - 48.0 °F 90% 30.14 in 7.0 mi Calm Calm - N/A   Clear
4:55 AM 49.1 °F - 46.0 °F 89% 30.13 in 10.0 mi Calm Calm - N/A   Clear
5:14 AM 49.1 °F - 46.4 °F 90% 30.13 in 10.0 mi Calm Calm - N/A   Clear
5:35 AM 45.7 °F 44.4 °F 43.2 °F 91% 30.14 in 10.0 mi NNW 3.5 mph - N/A   Clear
5:55 AM 45.9 °F 44.6 °F 43.7 °F 92% 30.15 in 10.0 mi NW 3.5 mph - N/A   Clear
6:14 AM 45.5 °F - 43.2 °F 92% 30.15 in 10.0 mi Calm Calm - N/A   Clear
6:35 AM 45.9 °F - 43.5 °F 92% 30.17 in 10.0 mi Calm Calm - N/A   Clear
6:55 AM 48.7 °F - 46.2 °F 91% 30.17 in 10.0 mi Calm Calm - N/A   Clear
7:15 AM 51.4 °F - 49.1 °F 92% 30.17 in 10.0 mi Calm Calm - N/A   Clear
7:35 AM 53.6 °F - 50.7 °F 90% 30.17 in 10.0 mi Calm Calm - N/A   Clear
7:54 AM 56.5 °F - 52.0 °F 85% 30.17 in 10.0 mi Calm Calm - N/A   Clear
8:15 AM 59.0 °F - 53.4 °F 82% 30.17 in 10.0 mi Calm Calm - N/A   Clear
8:35 AM 62.2 °F - 53.1 °F 72% 30.17 in 10.0 mi ESE 4.6 mph - N/A   Clear
8:54 AM 64.0 °F - 52.7 °F 67% 30.18 in 10.0 mi ESE 5.8 mph - N/A   Clear
9:15 AM 64.9 °F - 52.3 °F 64% 30.17 in 10.0 mi SE 5.8 mph - N/A   Clear
9:35 AM 66.9 °F - 52.0 °F 59% 30.19 in 10.0 mi Calm Calm - N/A   Clear
9:54 AM 69.1 °F - 53.8 °F 58% 30.19 in 10.0 mi Calm Calm - N/A   Clear
10:15 AM 71.6 °F - 52.0 °F 50% 30.18 in 10.0 mi SSE 4.6 mph - N/A   Clear
10:35 AM 71.6 °F - 51.3 °F 49% 30.18 in 10.0 mi South 3.5 mph - N/A   Clear
10:54 AM 71.6 °F - 48.7 °F 44% 30.18 in 10.0 mi South 4.6 mph - N/A   Clear
11:15 AM 73.2 °F - 49.6 °F 43% 30.17 in 10.0 mi South 3.5 mph - N/A   Clear
11:35 AM 74.8 °F - 46.9 °F 37% 30.17 in 10.0 mi Calm Calm - N/A   Clear
11:54 AM 76.6 °F - 46.4 °F 34% 30.17 in 10.0 mi Calm Calm - N/A   Clear
12:15 PM 76.6 °F - 46.8 °F 35% 30.17 in 10.0 mi Calm Calm - N/A   Clear
12:35 PM 76.6 °F - 48.9 °F 38% 30.17 in 10.0 mi SSE 4.6 mph - N/A   Clear
12:55 PM 77.7 °F - 43.3 °F 29% 30.17 in 10.0 mi East 5.8 mph - N/A   Clear
1:15 PM 79.2 °F - 32.9 °F 19% 30.16 in 10.0 mi South 5.8 mph - N/A   Clear
1:35 PM 79.2 °F - 41.7 °F 26% 30.16 in 10.0 mi NW 3.5 mph - N/A   Clear
1:55 PM 79.2 °F - 38.3 °F 23% 30.16 in 10.0 mi ENE 6.9 mph - N/A   Clear
2:15 PM 79.3 °F - 37.9 °F 23% 30.16 in 10.0 mi NE 4.6 mph - N/A   Clear
2:34 PM 81.7 °F - 40.8 °F 23% 30.16 in 10.0 mi East 8.1 mph - N/A   Clear
2:55 PM 81.1 °F - 37.8 °F 21% 30.14 in 10.0 mi SSE 5.8 mph - N/A   Clear
3:15 PM 81.7 °F - 39.6 °F 22% 30.14 in 10.0 mi East 8.1 mph - N/A   Clear
3:34 PM 81.5 °F - 39.6 °F 22% 30.14 in 10.0 mi Calm Calm - N/A   Clear
3:55 PM 81.7 °F - 38.3 °F 21% 30.13 in 10.0 mi South 3.5 mph - N/A   Clear
4:15 PM 81.7 °F - 39.7 °F 22% 30.13 in 10.0 mi ESE 8.1 mph - N/A   Clear
4:34 PM 81.7 °F - 40.8 °F 23% 30.13 in 10.0 mi SE 4.6 mph - N/A   Clear
4:55 PM 81.7 °F - 39.7 °F 22% 30.13 in 10.0 mi SE 5.8 mph - N/A   Clear
5:15 PM 81.7 °F - 43.0 °F 25% 30.13 in 10.0 mi SSE 6.9 mph - N/A   Clear
5:34 PM 81.7 °F - 44.4 °F 27% 30.13 in 10.0 mi Calm Calm - N/A   Clear
5:55 PM 81.7 °F - 42.1 °F 25% 30.13 in 10.0 mi SW 4.6 mph - N/A   Clear
6:14 PM 81.7 °F - 40.5 °F 23% 30.13 in 10.0 mi Calm Calm - N/A   Clear
6:35 PM 81.7 °F - 40.5 °F 23% 30.12 in 10.0 mi Calm Calm - N/A   Clear
6:55 PM 81.7 °F - 41.5 °F 24% 30.11 in 10.0 mi SE 6.9 mph - N/A   Clear
7:14 PM 81.5 °F - 45.5 °F 28% 30.12 in 10.0 mi Calm Calm - N/A   Clear
7:35 PM 80.6 °F - 46.2 °F 30% 30.12 in 10.0 mi South 4.6 mph - N/A   Clear
7:55 PM 79.2 °F - 44.8 °F 30% 30.12 in 10.0 mi South 6.9 mph - N/A   Clear
8:14 PM 79.2 °F - 46.0 °F 31% 30.12 in 10.0 mi South 5.8 mph - N/A   Clear
8:35 PM 76.6 °F - 52.3 °F 43% 30.12 in 10.0 mi SSE 8.1 mph - N/A   Clear
8:55 PM 76.6 °F - 54.5 °F 46% 30.13 in 10.0 mi SSE 4.6 mph - N/A   Clear
9:14 PM 74.3 °F - 54.0 °F 49% 30.13 in 10.0 mi SSE 5.8 mph - N/A   Clear
9:35 PM 71.6 °F - 53.2 °F 52% 30.13 in 10.0 mi South 3.5 mph - N/A   Clear
9:55 PM 71.6 °F - 55.0 °F 56% 30.14 in 10.0 mi Calm Calm - N/A   Clear
10:14 PM 71.6 °F - 56.5 °F 59% 30.15 in 10.0 mi SSE 3.5 mph - N/A   Clear
10:35 PM 68.2 °F - 55.8 °F 64% 30.15 in 10.0 mi Calm Calm - N/A   Clear
10:55 PM 61.7 °F - 54.9 °F 78% 30.16 in 10.0 mi NW 3.5 mph - N/A   Clear
11:14 PM 61.7 °F - 55.2 °F 79% 30.16 in 10.0 mi Calm Calm - N/A   Clear
11:35 PM 61.7 °F - 55.2 °F 79% 30.15 in 10.0 mi Calm Calm - N/A   Clear
11:55 PM 59.0 °F - 54.1 °F 84% 30.15 in 10.0 mi Calm Calm - N/A   Clear